sensor_id;sensor_type;location;lat;lon;timestamp;pressure;altitude;pressure_sealevel;temperature
8533;BMP280;4304;53.876;10.662;2023-10-31T00:01:08;99368.44;;;11.32
8533;BMP280;4304;53.876;10.662;2023-10-31T00:03:33;99366.41;;;11.26
8533;BMP280;4304;53.876;10.662;2023-10-31T00:05:58;99356.53;;;11.30
8533;BMP280;4304;53.876;10.662;2023-10-31T00:08:24;99345.84;;;11.33
8533;BMP280;4304;53.876;10.662;2023-10-31T00:10:49;99346.00;;;11.31
8533;BMP280;4304;53.876;10.662;2023-10-31T00:13:15;99342.59;;;11.31
8533;BMP280;4304;53.876;10.662;2023-10-31T00:15:40;99334.25;;;11.27
8533;BMP280;4304;53.876;10.662;2023-10-31T00:18:06;99319.72;;;11.25
8533;BMP280;4304;53.876;10.662;2023-10-31T00:20:31;99333.25;;;11.28
8533;BMP280;4304;53.876;10.662;2023-10-31T00:22:57;99322.34;;;11.25
8533;BMP280;4304;53.876;10.662;2023-10-31T00:25:22;99326.03;;;11.22
8533;BMP280;4304;53.876;10.662;2023-10-31T00:27:47;99322.06;;;11.28
8533;BMP280;4304;53.876;10.662;2023-10-31T00:30:13;99305.78;;;11.26
8533;BMP280;4304;53.876;10.662;2023-10-31T00:32:38;99311.94;;;11.25
8533;BMP280;4304;53.876;10.662;2023-10-31T00:35:04;99321.38;;;11.26
8533;BMP280;4304;53.876;10.662;2023-10-31T00:37:29;99310.31;;;11.24
8533;BMP280;4304;53.876;10.662;2023-10-31T00:39:54;99304.00;;;11.17
8533;BMP280;4304;53.876;10.662;2023-10-31T00:42:20;99307.13;;;11.30
8533;BMP280;4304;53.876;10.662;2023-10-31T00:44:45;99304.00;;;11.26
8533;BMP280;4304;53.876;10.662;2023-10-31T00:47:10;99310.44;;;11.32
8533;BMP280;4304;53.876;10.662;2023-10-31T00:49:36;99305.50;;;11.29
8533;BMP280;4304;53.876;10.662;2023-10-31T00:52:01;99294.25;;;11.28
8533;BMP280;4304;53.876;10.662;2023-10-31T00:54:27;99296.44;;;11.33
8533;BMP280;4304;53.876;10.662;2023-10-31T00:56:52;99280.72;;;11.34
8533;BMP280;4304;53.876;10.662;2023-10-31T00:59:17;99288.50;;;11.34
8533;BMP280;4304;53.876;10.662;2023-10-31T01:01:43;99277.56;;;11.31
8533;BMP280;4304;53.876;10.662;2023-10-31T01:04:08;99270.69;;;11.39
8533;BMP280;4304;53.876;10.662;2023-10-31T01:06:40;99263.84;;;11.38
8533;BMP280;4304;53.876;10.662;2023-10-31T01:09:05;99269.25;;;11.27
8533;BMP280;4304;53.876;10.662;2023-10-31T01:11:31;99266.91;;;11.34
8533;BMP280;4304;53.876;10.662;2023-10-31T01:13:56;99258.56;;;11.30
8533;BMP280;4304;53.876;10.662;2023-10-31T01:16:21;99259.91;;;11.34
8533;BMP280;4304;53.876;10.662;2023-10-31T01:18:47;99253.66;;;11.27
8533;BMP280;4304;53.876;10.662;2023-10-31T01:21:12;99263.38;;;11.25
8533;BMP280;4304;53.876;10.662;2023-10-31T01:23:37;99249.16;;;11.20
8533;BMP280;4304;53.876;10.662;2023-10-31T01:26:03;99253.41;;;11.21
8533;BMP280;4304;53.876;10.662;2023-10-31T01:28:28;99242.84;;;11.22
8533;BMP280;4304;53.876;10.662;2023-10-31T01:30:53;99249.13;;;11.29
8533;BMP280;4304;53.876;10.662;2023-10-31T01:33:19;99234.28;;;11.12
8533;BMP280;4304;53.876;10.662;2023-10-31T01:35:44;99234.78;;;11.25
8533;BMP280;4304;53.876;10.662;2023-10-31T01:38:09;99238.47;;;11.23
8533;BMP280;4304;53.876;10.662;2023-10-31T01:40:34;99234.09;;;11.23
8533;BMP280;4304;53.876;10.662;2023-10-31T01:43:00;99239.72;;;11.19
8533;BMP280;4304;53.876;10.662;2023-10-31T01:45:25;99235.34;;;11.19
8533;BMP280;4304;53.876;10.662;2023-10-31T01:47:51;99236.00;;;11.21
8533;BMP280;4304;53.876;10.662;2023-10-31T01:50:16;99237.94;;;11.19
8533;BMP280;4304;53.876;10.662;2023-10-31T01:52:43;99228.22;;;11.21
8533;BMP280;4304;53.876;10.662;2023-10-31T01:55:09;99230.81;;;11.21
8533;BMP280;4304;53.876;10.662;2023-10-31T01:57:34;99226.03;;;11.17
8533;BMP280;4304;53.876;10.662;2023-10-31T01:59:59;99230.53;;;11.24
8533;BMP280;4304;53.876;10.662;2023-10-31T02:02:25;99218.06;;;11.28
8533;BMP280;4304;53.876;10.662;2023-10-31T02:04:52;99213.44;;;11.22
8533;BMP280;4304;53.876;10.662;2023-10-31T02:07:18;99213.66;;;11.28
8533;BMP280;4304;53.876;10.662;2023-10-31T02:09:43;99209.59;;;11.26
8533;BMP280;4304;53.876;10.662;2023-10-31T02:12:08;99204.91;;;11.29
8533;BMP280;4304;53.876;10.662;2023-10-31T02:14:34;99207.81;;;11.26
8533;BMP280;4304;53.876;10.662;2023-10-31T02:16:59;99192.47;;;11.23
8533;BMP280;4304;53.876;10.662;2023-10-31T02:19:24;99200.53;;;11.30
8533;BMP280;4304;53.876;10.662;2023-10-31T02:21:50;99199.44;;;11.32
8533;BMP280;4304;53.876;10.662;2023-10-31T02:24:15;99198.47;;;11.33
8533;BMP280;4304;53.876;10.662;2023-10-31T02:26:41;99190.28;;;11.28
8533;BMP280;4304;53.876;10.662;2023-10-31T02:29:06;99185.38;;;11.25
8533;BMP280;4304;53.876;10.662;2023-10-31T02:31:32;99190.03;;;11.22
8533;BMP280;4304;53.876;10.662;2023-10-31T02:34:00;99182.34;;;11.30
8533;BMP280;4304;53.876;10.662;2023-10-31T02:36:25;99178.53;;;11.24
8533;BMP280;4304;53.876;10.662;2023-10-31T02:38:51;99172.78;;;11.30
8533;BMP280;4304;53.876;10.662;2023-10-31T02:41:16;99184.41;;;11.26
8533;BMP280;4304;53.876;10.662;2023-10-31T02:43:42;99183.31;;;11.29
8533;BMP280;4304;53.876;10.662;2023-10-31T02:46:07;99174.66;;;11.28
8533;BMP280;4304;53.876;10.662;2023-10-31T02:48:33;99172.78;;;11.30
8533;BMP280;4304;53.876;10.662;2023-10-31T02:51:05;99172.06;;;11.28
8533;BMP280;4304;53.876;10.662;2023-10-31T02:53:30;99159.63;;;11.32
8533;BMP280;4304;53.876;10.662;2023-10-31T02:55:55;99161.38;;;11.31
8533;BMP280;4304;53.876;10.662;2023-10-31T02:58:21;99159.06;;;11.28
8533;BMP280;4304;53.876;10.662;2023-10-31T03:00:46;99150.88;;;11.23
8533;BMP280;4304;53.876;10.662;2023-10-31T03:03:11;99138.59;;;11.25
8533;BMP280;4304;53.876;10.662;2023-10-31T03:05:37;99146.06;;;11.28
8533;BMP280;4304;53.876;10.662;2023-10-31T03:08:02;99143.19;;;11.31
8533;BMP280;4304;53.876;10.662;2023-10-31T03:10:27;99141.25;;;11.33
8533;BMP280;4304;53.876;10.662;2023-10-31T03:12:53;99140.88;;;11.28
8533;BMP280;4304;53.876;10.662;2023-10-31T03:15:18;99136.66;;;11.27
8533;BMP280;4304;53.876;10.662;2023-10-31T03:17:43;99129.81;;;11.26
8533;BMP280;4304;53.876;10.662;2023-10-31T03:20:09;99140.06;;;11.28
8533;BMP280;4304;53.876;10.662;2023-10-31T03:22:35;99126.91;;;11.29
8533;BMP280;4304;53.876;10.662;2023-10-31T03:25:00;99123.66;;;11.27
8533;BMP280;4304;53.876;10.662;2023-10-31T03:27:26;99129.53;;;11.29
8533;BMP280;4304;53.876;10.662;2023-10-31T03:29:51;99138.00;;;11.31
8533;BMP280;4304;53.876;10.662;2023-10-31T03:32:17;99120.16;;;11.36
8533;BMP280;4304;53.876;10.662;2023-10-31T03:34:42;99124.28;;;11.39
8533;BMP280;4304;53.876;10.662;2023-10-31T03:37:07;99118.22;;;11.38
8533;BMP280;4304;53.876;10.662;2023-10-31T03:39:33;99107.03;;;11.38
8533;BMP280;4304;53.876;10.662;2023-10-31T03:41:59;99111.41;;;11.37
8533;BMP280;4304;53.876;10.662;2023-10-31T03:44:25;99110.16;;;11.41
8533;BMP280;4304;53.876;10.662;2023-10-31T03:46:50;99103.84;;;11.44
8533;BMP280;4304;53.876;10.662;2023-10-31T03:49:16;99105.47;;;11.45
8533;BMP280;4304;53.876;10.662;2023-10-31T03:51:41;99101.25;;;11.44
8533;BMP280;4304;53.876;10.662;2023-10-31T03:54:07;99101.25;;;11.44
8533;BMP280;4304;53.876;10.662;2023-10-31T03:56:40;99104.53;;;11.46
8533;BMP280;4304;53.876;10.662;2023-10-31T03:59:05;99096.84;;;11.44
8533;BMP280;4304;53.876;10.662;2023-10-31T04:01:30;99096.19;;;11.42
8533;BMP280;4304;53.876;10.662;2023-10-31T04:03:56;99096.75;;;11.46
8533;BMP280;4304;53.876;10.662;2023-10-31T04:06:22;99078.53;;;11.46
8533;BMP280;4304;53.876;10.662;2023-10-31T04:08:47;99091.13;;;11.41
8533;BMP280;4304;53.876;10.662;2023-10-31T04:11:13;99080.88;;;11.39
8533;BMP280;4304;53.876;10.662;2023-10-31T04:13:38;99087.41;;;11.43
8533;BMP280;4304;53.876;10.662;2023-10-31T04:16:04;99076.50;;;11.40
8533;BMP280;4304;53.876;10.662;2023-10-31T04:18:29;99080.88;;;11.39
8533;BMP280;4304;53.876;10.662;2023-10-31T04:20:54;99079.59;;;11.43
8533;BMP280;4304;53.876;10.662;2023-10-31T04:23:20;99071.28;;;11.40
8533;BMP280;4304;53.876;10.662;2023-10-31T04:25:45;99065.66;;;11.44
8533;BMP280;4304;53.876;10.662;2023-10-31T04:28:11;99057.44;;;11.49
8533;BMP280;4304;53.876;10.662;2023-10-31T04:30:38;99068.00;;;11.47
8533;BMP280;4304;53.876;10.662;2023-10-31T04:33:03;99063.31;;;11.51
8533;BMP280;4304;53.876;10.662;2023-10-31T04:35:29;99049.94;;;11.46
8533;BMP280;4304;53.876;10.662;2023-10-31T04:37:54;99059.75;;;11.52
8533;BMP280;4304;53.876;10.662;2023-10-31T04:40:19;99058.25;;;11.49
8533;BMP280;4304;53.876;10.662;2023-10-31T04:42:46;99055.06;;;11.55
8533;BMP280;4304;53.876;10.662;2023-10-31T04:45:12;99049.72;;;11.56
8533;BMP280;4304;53.876;10.662;2023-10-31T04:47:37;99056.69;;;11.56
8533;BMP280;4304;53.876;10.662;2023-10-31T04:50:03;99050.22;;;11.60
8533;BMP280;4304;53.876;10.662;2023-10-31T04:52:28;99045.97;;;11.59
8533;BMP280;4304;53.876;10.662;2023-10-31T04:54:54;99052.16;;;11.58
8533;BMP280;4304;53.876;10.662;2023-10-31T04:57:19;99031.88;;;11.61
8533;BMP280;4304;53.876;10.662;2023-10-31T04:59:44;99027.47;;;11.62
8533;BMP280;4304;53.876;10.662;2023-10-31T05:02:10;99042.31;;;11.69
8533;BMP280;4304;53.876;10.662;2023-10-31T05:04:38;99023.81;;;11.72
8533;BMP280;4304;53.876;10.662;2023-10-31T05:07:04;99022.06;;;11.73
8533;BMP280;4304;53.876;10.662;2023-10-31T05:09:30;99014.25;;;11.73
8533;BMP280;4304;53.876;10.662;2023-10-31T05:11:55;99021.56;;;11.77
8533;BMP280;4304;53.876;10.662;2023-10-31T05:14:21;99018.03;;;11.78
8533;BMP280;4304;53.876;10.662;2023-10-31T05:16:46;99013.34;;;11.82
8533;BMP280;4304;53.876;10.662;2023-10-31T05:19:11;99011.38;;;11.84
8533;BMP280;4304;53.876;10.662;2023-10-31T05:21:37;99011.38;;;11.84
8533;BMP280;4304;53.876;10.662;2023-10-31T05:24:03;99007.81;;;11.85
8533;BMP280;4304;53.876;10.662;2023-10-31T05:26:28;98995.25;;;11.80
8533;BMP280;4304;53.876;10.662;2023-10-31T05:28:55;98998.53;;;11.82
8533;BMP280;4304;53.876;10.662;2023-10-31T05:31:22;98998.38;;;11.84
8533;BMP280;4304;53.876;10.662;2023-10-31T05:33:47;99005.88;;;11.87
8533;BMP280;4304;53.876;10.662;2023-10-31T05:36:19;99001.50;;;11.87
8533;BMP280;4304;53.876;10.662;2023-10-31T05:38:45;99000.69;;;11.87
8533;BMP280;4304;53.876;10.662;2023-10-31T05:41:12;98994.03;;;11.92
8533;BMP280;4304;53.876;10.662;2023-10-31T05:43:37;98991.59;;;11.91
8533;BMP280;4304;53.876;10.662;2023-10-31T05:46:03;98991.75;;;11.89
8533;BMP280;4304;53.876;10.662;2023-10-31T05:48:28;98992.44;;;11.91
8533;BMP280;4304;53.876;10.662;2023-10-31T05:50:55;98993.22;;;11.92
8533;BMP280;4304;53.876;10.662;2023-10-31T05:53:21;98995.53;;;11.94
8533;BMP280;4304;53.876;10.662;2023-10-31T05:55:46;98986.06;;;11.93
8533;BMP280;4304;53.876;10.662;2023-10-31T05:58:11;98997.00;;;11.97
8533;BMP280;4304;53.876;10.662;2023-10-31T06:00:37;98999.59;;;11.97
8533;BMP280;4304;53.876;10.662;2023-10-31T06:03:03;99002.34;;;11.95
8533;BMP280;4304;53.876;10.662;2023-10-31T06:05:28;99005.78;;;11.96
8533;BMP280;4304;53.876;10.662;2023-10-31T06:07:53;99000.44;;;11.97
8533;BMP280;4304;53.876;10.662;2023-10-31T06:10:19;98997.69;;;11.99
8533;BMP280;4304;53.876;10.662;2023-10-31T06:12:45;98996.53;;;12.01
8533;BMP280;4304;53.876;10.662;2023-10-31T06:15:10;99001.59;;;12.03
8533;BMP280;4304;53.876;10.662;2023-10-31T06:17:35;98997.19;;;12.03
8533;BMP280;4304;53.876;10.662;2023-10-31T06:20:01;99002.09;;;12.06
8533;BMP280;4304;53.876;10.662;2023-10-31T06:22:27;99000.94;;;12.01
8533;BMP280;4304;53.876;10.662;2023-10-31T06:24:52;98999.81;;;12.03
8533;BMP280;4304;53.876;10.662;2023-10-31T06:27:17;98998.03;;;12.04
8533;BMP280;4304;53.876;10.662;2023-10-31T06:29:43;98994.59;;;12.03
8533;BMP280;4304;53.876;10.662;2023-10-31T06:32:08;98990.22;;;12.04
8533;BMP280;4304;53.876;10.662;2023-10-31T06:34:33;98995.63;;;12.10
8533;BMP280;4304;53.876;10.662;2023-10-31T06:36:59;99006.41;;;12.15
8533;BMP280;4304;53.876;10.662;2023-10-31T06:39:24;99001.50;;;12.12
8533;BMP280;4304;53.876;10.662;2023-10-31T06:41:50;99009.97;;;12.14
8533;BMP280;4304;53.876;10.662;2023-10-31T06:44:15;99003.63;;;12.17
8533;BMP280;4304;53.876;10.662;2023-10-31T06:46:40;99007.06;;;12.17
8533;BMP280;4304;53.876;10.662;2023-10-31T06:49:05;99008.69;;;12.18
8533;BMP280;4304;53.876;10.662;2023-10-31T06:51:31;98999.59;;;12.22
8533;BMP280;4304;53.876;10.662;2023-10-31T06:53:56;99000.91;;;12.26
8533;BMP280;4304;53.876;10.662;2023-10-31T06:56:22;99003.66;;;12.25
8533;BMP280;4304;53.876;10.662;2023-10-31T06:58:47;99006.13;;;12.26
8533;BMP280;4304;53.876;10.662;2023-10-31T07:01:12;99009.22;;;12.30
8533;BMP280;4304;53.876;10.662;2023-10-31T07:03:39;99010.06;;;12.30
8533;BMP280;4304;53.876;10.662;2023-10-31T07:06:05;99004.03;;;12.30
8533;BMP280;4304;53.876;10.662;2023-10-31T07:08:30;99012.50;;;12.32
8533;BMP280;4304;53.876;10.662;2023-10-31T07:10:56;99004.84;;;12.30
8533;BMP280;4304;53.876;10.662;2023-10-31T07:13:21;99013.47;;;12.31
8533;BMP280;4304;53.876;10.662;2023-10-31T07:15:46;99003.41;;;12.36
8533;BMP280;4304;53.876;10.662;2023-10-31T07:18:13;99009.72;;;12.33
8533;BMP280;4304;53.876;10.662;2023-10-31T07:20:38;99013.69;;;12.37
8533;BMP280;4304;53.876;10.662;2023-10-31T07:23:03;99007.31;;;12.39
8533;BMP280;4304;53.876;10.662;2023-10-31T07:25:29;99006.38;;;12.40
8533;BMP280;4304;53.876;10.662;2023-10-31T07:27:54;99004.56;;;12.41
8533;BMP280;4304;53.876;10.662;2023-10-31T07:30:19;99012.06;;;12.44
8533;BMP280;4304;53.876;10.662;2023-10-31T07:32:45;98995.84;;;12.50
8533;BMP280;4304;53.876;10.662;2023-10-31T07:35:10;99006.25;;;12.50
8533;BMP280;4304;53.876;10.662;2023-10-31T07:37:36;99003.66;;;12.50
8533;BMP280;4304;53.876;10.662;2023-10-31T07:40:01;99008.19;;;12.48
8533;BMP280;4304;53.876;10.662;2023-10-31T07:42:29;99008.03;;;12.49
8533;BMP280;4304;53.876;10.662;2023-10-31T07:44:54;98995.84;;;12.50
8533;BMP280;4304;53.876;10.662;2023-10-31T07:47:20;98998.28;;;12.51
8533;BMP280;4304;53.876;10.662;2023-10-31T07:49:45;99001.69;;;12.52
8533;BMP280;4304;53.876;10.662;2023-10-31T07:52:10;98998.63;;;12.56
8533;BMP280;4304;53.876;10.662;2023-10-31T07:54:39;98995.69;;;12.59
8533;BMP280;4304;53.876;10.662;2023-10-31T07:57:05;99010.50;;;12.59
8533;BMP280;4304;53.876;10.662;2023-10-31T07:59:33;98992.94;;;12.61
8533;BMP280;4304;53.876;10.662;2023-10-31T08:01:58;98983.84;;;12.65
8533;BMP280;4304;53.876;10.662;2023-10-31T08:04:24;98990.34;;;12.69
8533;BMP280;4304;53.876;10.662;2023-10-31T08:06:50;98993.47;;;12.72
8533;BMP280;4304;53.876;10.662;2023-10-31T08:09:15;98987.28;;;12.73
8533;BMP280;4304;53.876;10.662;2023-10-31T08:11:41;98986.28;;;12.74
8533;BMP280;4304;53.876;10.662;2023-10-31T08:14:07;98987.13;;;12.75
8533;BMP280;4304;53.876;10.662;2023-10-31T08:16:32;98982.06;;;12.73
8533;BMP280;4304;53.876;10.662;2023-10-31T08:18:58;98990.09;;;12.79
8533;BMP280;4304;53.876;10.662;2023-10-31T08:21:23;98981.41;;;12.79
8533;BMP280;4304;53.876;10.662;2023-10-31T08:23:48;98983.59;;;12.83
8533;BMP280;4304;53.876;10.662;2023-10-31T08:26:14;98979.03;;;12.85
8533;BMP280;4304;53.876;10.662;2023-10-31T08:28:39;98982.97;;;12.89
8533;BMP280;4304;53.876;10.662;2023-10-31T08:31:05;98977.28;;;12.94
8533;BMP280;4304;53.876;10.662;2023-10-31T08:33:31;98972.22;;;13.00
8533;BMP280;4304;53.876;10.662;2023-10-31T08:35:56;98964.41;;;13.08
8533;BMP280;4304;53.876;10.662;2023-10-31T08:38:21;98970.63;;;13.15
8533;BMP280;4304;53.876;10.662;2023-10-31T08:40:47;98976.34;;;13.19
8533;BMP280;4304;53.876;10.662;2023-10-31T08:43:14;98971.59;;;13.14
8533;BMP280;4304;53.876;10.662;2023-10-31T08:45:39;98979.44;;;13.14
8533;BMP280;4304;53.876;10.662;2023-10-31T08:48:04;98975.84;;;13.15
8533;BMP280;4304;53.876;10.662;2023-10-31T08:50:30;98978.78;;;13.28
8533;BMP280;4304;53.876;10.662;2023-10-31T08:52:55;98982.22;;;13.36
8533;BMP280;4304;53.876;10.662;2023-10-31T08:55:21;98987.75;;;13.41
8533;BMP280;4304;53.876;10.662;2023-10-31T08:57:47;98989.88;;;13.46
8533;BMP280;4304;53.876;10.662;2023-10-31T09:00:12;98993.28;;;13.46
8533;BMP280;4304;53.876;10.662;2023-10-31T09:02:39;98993.66;;;13.51
8533;BMP280;4304;53.876;10.662;2023-10-31T09:05:05;98998.69;;;13.61
8533;BMP280;4304;53.876;10.662;2023-10-31T09:07:30;99002.28;;;13.67
8533;BMP280;4304;53.876;10.662;2023-10-31T09:09:56;99001.63;;;13.65
8533;BMP280;4304;53.876;10.662;2023-10-31T09:12:21;98992.34;;;13.71
8533;BMP280;4304;53.876;10.662;2023-10-31T09:14:47;98998.38;;;13.64
8533;BMP280;4304;53.876;10.662;2023-10-31T09:17:12;98997.72;;;13.62
8533;BMP280;4304;53.876;10.662;2023-10-31T09:19:38;99003.59;;;13.71
8533;BMP280;4304;53.876;10.662;2023-10-31T09:22:03;98996.72;;;13.63
8533;BMP280;4304;53.876;10.662;2023-10-31T09:24:29;99001.63;;;13.58
8533;BMP280;4304;53.876;10.662;2023-10-31T09:26:54;98996.72;;;13.63
8533;BMP280;4304;53.876;10.662;2023-10-31T09:29:22;99003.91;;;13.53
8533;BMP280;4304;53.876;10.662;2023-10-31T09:31:48;99003.91;;;13.53
8533;BMP280;4304;53.876;10.662;2023-10-31T09:34:14;99004.50;;;13.15
8533;BMP280;4304;53.876;10.662;2023-10-31T09:36:39;99018.53;;;13.06
8533;BMP280;4304;53.876;10.662;2023-10-31T09:39:05;99023.53;;;12.92
8533;BMP280;4304;53.876;10.662;2023-10-31T09:41:31;99036.16;;;12.79
8533;BMP280;4304;53.876;10.662;2023-10-31T09:43:57;99044.78;;;12.72
8533;BMP280;4304;53.876;10.662;2023-10-31T09:46:23;99042.72;;;12.58
8533;BMP280;4304;53.876;10.662;2023-10-31T09:48:49;99051.69;;;12.55
8533;BMP280;4304;53.876;10.662;2023-10-31T09:51:15;99053.84;;;12.60
8533;BMP280;4304;53.876;10.662;2023-10-31T09:53:45;99045.03;;;12.61
8533;BMP280;4304;53.876;10.662;2023-10-31T09:56:11;99056.06;;;12.47
8533;BMP280;4304;53.876;10.662;2023-10-31T09:58:37;99060.00;;;12.59
8533;BMP280;4304;53.876;10.662;2023-10-31T10:01:04;99069.06;;;12.47
8533;BMP280;4304;53.876;10.662;2023-10-31T10:03:30;99076.88;;;12.47
8533;BMP280;4304;53.876;10.662;2023-10-31T10:05:55;99093.47;;;12.46
8533;BMP280;4304;53.876;10.662;2023-10-31T10:08:20;99085.75;;;12.36
8533;BMP280;4304;53.876;10.662;2023-10-31T10:10:46;99082.25;;;12.20
8533;BMP280;4304;53.876;10.662;2023-10-31T10:13:12;99067.16;;;12.24
8533;BMP280;4304;53.876;10.662;2023-10-31T10:15:47;99072.66;;;12.21
8533;BMP280;4304;53.876;10.662;2023-10-31T10:18:34;99086.63;;;12.20
8533;BMP280;4304;53.876;10.662;2023-10-31T10:21:04;99092.81;;;12.19
8533;BMP280;4304;53.876;10.662;2023-10-31T10:23:31;99097.19;;;12.18
8533;BMP280;4304;53.876;10.662;2023-10-31T10:25:57;99097.69;;;12.14
8533;BMP280;4304;53.876;10.662;2023-10-31T10:28:24;99106.44;;;12.13
8533;BMP280;4304;53.876;10.662;2023-10-31T10:30:55;99116.72;;;12.14
8533;BMP280;4304;53.876;10.662;2023-10-31T10:33:21;99114.63;;;12.18
8533;BMP280;4304;53.876;10.662;2023-10-31T10:35:47;99125.03;;;12.18
8533;BMP280;4304;53.876;10.662;2023-10-31T10:38:15;99117.88;;;12.20
8533;BMP280;4304;53.876;10.662;2023-10-31T10:40:44;99119.97;;;12.16
8533;BMP280;4304;53.876;10.662;2023-10-31T10:43:30;99127.94;;;12.15
8533;BMP280;4304;53.876;10.662;2023-10-31T10:45:58;99147.44;;;12.11
8533;BMP280;4304;53.876;10.662;2023-10-31T10:48:25;99162.81;;;11.87
8533;BMP280;4304;53.876;10.662;2023-10-31T10:51:04;99160.75;;;11.73
8533;BMP280;4304;53.876;10.662;2023-10-31T10:53:35;99179.69;;;11.66
8533;BMP280;4304;53.876;10.662;2023-10-31T10:56:10;99189.78;;;11.52
8533;BMP280;4304;53.876;10.662;2023-10-31T10:58:46;99208.13;;;11.50
8533;BMP280;4304;53.876;10.662;2023-10-31T11:01:16;99230.38;;;10.99
8533;BMP280;4304;53.876;10.662;2023-10-31T11:03:44;99239.31;;;10.78
8533;BMP280;4304;53.876;10.662;2023-10-31T11:06:10;99251.22;;;10.62
8533;BMP280;4304;53.876;10.662;2023-10-31T11:08:36;99276.09;;;10.73
8533;BMP280;4304;53.876;10.662;2023-10-31T11:11:02;99290.59;;;10.66
8533;BMP280;4304;53.876;10.662;2023-10-31T11:13:29;99278.53;;;10.56
8533;BMP280;4304;53.876;10.662;2023-10-31T11:15:57;99302.19;;;10.63
8533;BMP280;4304;53.876;10.662;2023-10-31T11:18:25;99320.53;;;10.42
8533;BMP280;4304;53.876;10.662;2023-10-31T11:20:51;99341.41;;;10.31
8533;BMP280;4304;53.876;10.662;2023-10-31T11:23:16;99350.56;;;10.35
8533;BMP280;4304;53.876;10.662;2023-10-31T11:25:43;99370.09;;;10.30
8533;BMP280;4304;53.876;10.662;2023-10-31T11:28:13;99385.53;;;10.22
8533;BMP280;4304;53.876;10.662;2023-10-31T11:30:39;99394.22;;;10.12
8533;BMP280;4304;53.876;10.662;2023-10-31T11:33:05;99407.75;;;10.15
8533;BMP280;4304;53.876;10.662;2023-10-31T11:35:33;99415.69;;;10.14
8533;BMP280;4304;53.876;10.662;2023-10-31T11:38:06;99431.09;;;10.06
8533;BMP280;4304;53.876;10.662;2023-10-31T11:40:32;99434.47;;;9.97
8533;BMP280;4304;53.876;10.662;2023-10-31T11:43:02;99438.63;;;9.88
8533;BMP280;4304;53.876;10.662;2023-10-31T11:45:42;99452.94;;;9.83
8533;BMP280;4304;53.876;10.662;2023-10-31T11:48:10;99456.03;;;9.77
8533;BMP280;4304;53.876;10.662;2023-10-31T11:50:36;99462.47;;;9.73
8533;BMP280;4304;53.876;10.662;2023-10-31T11:55:33;99479.56;;;9.85
8533;BMP280;4304;53.876;10.662;2023-10-31T12:00:40;99488.19;;;9.85
8533;BMP280;4304;53.876;10.662;2023-10-31T12:03:05;99490.88;;;9.84
8533;BMP280;4304;53.876;10.662;2023-10-31T12:05:30;99499.22;;;9.87
8533;BMP280;4304;53.876;10.662;2023-10-31T12:07:56;99504.59;;;9.86
8533;BMP280;4304;53.876;10.662;2023-10-31T12:10:25;99509.16;;;9.93
8533;BMP280;4304;53.876;10.662;2023-10-31T12:12:52;99513.88;;;9.88
8533;BMP280;4304;53.876;10.662;2023-10-31T12:15:18;99525.34;;;9.86
8533;BMP280;4304;53.876;10.662;2023-10-31T12:17:44;99534.31;;;9.82
8533;BMP280;4304;53.876;10.662;2023-10-31T12:20:09;99529.13;;;9.82
8533;BMP280;4304;53.876;10.662;2023-10-31T12:22:36;99546.66;;;9.89
8533;BMP280;4304;53.876;10.662;2023-10-31T12:25:05;99550.56;;;9.84
8533;BMP280;4304;53.876;10.662;2023-10-31T12:27:44;99555.50;;;9.87
8533;BMP280;4304;53.876;10.662;2023-10-31T12:30:10;99562.84;;;9.82
8533;BMP280;4304;53.876;10.662;2023-10-31T12:32:36;99574.47;;;9.87
8533;BMP280;4304;53.876;10.662;2023-10-31T12:35:02;99579.34;;;9.81
8533;BMP280;4304;53.876;10.662;2023-10-31T12:37:27;99584.16;;;9.65
8533;BMP280;4304;53.876;10.662;2023-10-31T12:39:53;99593.88;;;9.73
8533;BMP280;4304;53.876;10.662;2023-10-31T12:42:19;99604.72;;;9.77
8533;BMP280;4304;53.876;10.662;2023-10-31T12:44:45;99608.41;;;9.75
8533;BMP280;4304;53.876;10.662;2023-10-31T12:47:21;99619.34;;;9.78
8533;BMP280;4304;53.876;10.662;2023-10-31T12:49:46;99623.94;;;9.75
8533;BMP280;4304;53.876;10.662;2023-10-31T12:52:12;99633.44;;;9.65
8533;BMP280;4304;53.876;10.662;2023-10-31T12:54:38;99645.59;;;9.65
8533;BMP280;4304;53.876;10.662;2023-10-31T12:57:07;99645.44;;;9.66
8533;BMP280;4304;53.876;10.662;2023-10-31T12:59:34;99645.06;;;9.71
8533;BMP280;4304;53.876;10.662;2023-10-31T13:02:01;99651.69;;;9.75
8533;BMP280;4304;53.876;10.662;2023-10-31T13:04:30;99643.38;;;9.80
8533;BMP280;4304;53.876;10.662;2023-10-31T13:07:06;99653.72;;;9.91
8533;BMP280;4304;53.876;10.662;2023-10-31T13:09:33;99664.91;;;10.03
8533;BMP280;4304;53.876;10.662;2023-10-31T13:12:01;99663.78;;;10.16
8533;BMP280;4304;53.876;10.662;2023-10-31T13:14:27;99670.47;;;10.19
8533;BMP280;4304;53.876;10.662;2023-10-31T13:16:52;99676.88;;;10.15
8533;BMP280;4304;53.876;10.662;2023-10-31T13:19:18;99695.28;;;10.12
8533;BMP280;4304;53.876;10.662;2023-10-31T13:21:43;99700.47;;;10.12
8533;BMP280;4304;53.876;10.662;2023-10-31T13:24:08;99691.88;;;10.11
8533;BMP280;4304;53.876;10.662;2023-10-31T13:26:34;99698.06;;;9.99
8533;BMP280;4304;53.876;10.662;2023-10-31T13:29:00;99707.59;;;9.99
8533;BMP280;4304;53.876;10.662;2023-10-31T13:31:25;99712.47;;;9.92
8533;BMP280;4304;53.876;10.662;2023-10-31T13:33:50;99712.81;;;9.88
8533;BMP280;4304;53.876;10.662;2023-10-31T13:36:16;99722.09;;;9.90
8533;BMP280;4304;53.876;10.662;2023-10-31T13:38:41;99720.84;;;9.96
8533;BMP280;4304;53.876;10.662;2023-10-31T13:41:06;99732.16;;;9.95
8533;BMP280;4304;53.876;10.662;2023-10-31T13:43:32;99739.69;;;9.87
8533;BMP280;4304;53.876;10.662;2023-10-31T13:45:57;99747.13;;;9.80
8533;BMP280;4304;53.876;10.662;2023-10-31T13:48:23;99737.28;;;9.64
8533;BMP280;4304;53.876;10.662;2023-10-31T13:50:48;99748.25;;;9.67
8533;BMP280;4304;53.876;10.662;2023-10-31T13:53:14;99758.72;;;9.55
8533;BMP280;4304;53.876;10.662;2023-10-31T13:55:41;99762.41;;;9.52
8533;BMP280;4304;53.876;10.662;2023-10-31T13:58:06;99765.22;;;9.49
8533;BMP280;4304;53.876;10.662;2023-10-31T14:00:32;99770.56;;;9.37
8533;BMP280;4304;53.876;10.662;2023-10-31T14:02:58;99781.88;;;9.36
8533;BMP280;4304;53.876;10.662;2023-10-31T14:05:23;99785.66;;;9.32
8533;BMP280;4304;53.876;10.662;2023-10-31T14:07:50;99782.78;;;9.35
8533;BMP280;4304;53.876;10.662;2023-10-31T14:10:16;99785.75;;;9.31
8533;BMP280;4304;53.876;10.662;2023-10-31T14:12:46;99790.94;;;9.41
8533;BMP280;4304;53.876;10.662;2023-10-31T14:15:11;99791.66;;;9.43
8533;BMP280;4304;53.876;10.662;2023-10-31T14:17:37;99800.50;;;9.52
8533;BMP280;4304;53.876;10.662;2023-10-31T14:20:03;99796.69;;;9.45
8533;BMP280;4304;53.876;10.662;2023-10-31T14:22:29;99803.66;;;9.44